sensor_id;sensor_type;location;lat;lon;timestamp;pressure;altitude;pressure_sealevel;temperature;humidity
1401;BME280;46518;48.842;8.926;2023-01-08T01:04:30;96508.75;;;7.22;78.26
1401;BME280;46518;48.842;8.926;2023-01-08T01:06:59;96517.38;;;7.23;78.12
1401;BME280;46518;48.842;8.926;2023-01-08T01:09:27;96517.09;;;7.19;78.23
1401;BME280;46518;48.842;8.926;2023-01-08T01:11:56;96509.13;;;6.97;78.91
1401;BME280;46518;48.842;8.926;2023-01-08T01:14:24;96514.84;;;7.11;78.98
1401;BME280;46518;48.842;8.926;2023-01-08T01:16:53;96498.34;;;6.94;78.74
1401;BME280;46518;48.842;8.926;2023-01-08T01:19:21;96516.03;;;7.20;78.43
1401;BME280;46518;48.842;8.926;2023-01-08T01:21:51;96509.84;;;7.09;78.53
1401;BME280;46518;48.842;8.926;2023-01-08T01:24:19;96493.53;;;7.19;77.81
1401;BME280;46518;48.842;8.926;2023-01-08T01:26:50;96489.31;;;7.18;77.64
1401;BME280;46518;48.842;8.926;2023-01-08T01:29:19;96492.34;;;7.10;77.80
1401;BME280;46518;48.842;8.926;2023-01-08T01:31:47;96487.50;;;7.02;78.16
1401;BME280;46518;48.842;8.926;2023-01-08T01:34:16;96501.53;;;7.29;77.79
1401;BME280;46518;48.842;8.926;2023-01-08T01:36:44;96504.03;;;7.41;77.05
1401;BME280;46518;48.842;8.926;2023-01-08T01:39:14;96503.31;;;7.63;76.75
1401;BME280;46518;48.842;8.926;2023-01-08T01:41:44;96503.06;;;7.64;75.90
1401;BME280;46518;48.842;8.926;2023-01-08T01:51:49;96492.97;;;7.17;77.37
1401;BME280;46518;48.842;8.926;2023-01-08T01:54:19;96498.69;;;7.14;77.33
1401;BME280;46518;48.842;8.926;2023-01-08T01:56:48;96487.03;;;7.05;77.88
1401;BME280;46518;48.842;8.926;2023-01-08T01:59:18;96471.63;;;7.08;77.76
1401;BME280;46518;48.842;8.926;2023-01-08T02:01:47;96469.00;;;7.08;77.99
1401;BME280;46518;48.842;8.926;2023-01-08T02:04:21;96464.19;;;7.17;77.84
1401;BME280;46518;48.842;8.926;2023-01-08T02:06:55;96471.94;;;7.29;77.62
1401;BME280;46518;48.842;8.926;2023-01-08T02:09:32;96474.72;;;7.39;77.36
1401;BME280;46518;48.842;8.926;2023-01-08T02:12:10;96485.41;;;7.38;77.91
1401;BME280;46518;48.842;8.926;2023-01-08T02:14:52;96478.97;;;7.45;77.59
1401;BME280;46518;48.842;8.926;2023-01-08T02:17:28;96484.38;;;7.39;77.55
1401;BME280;46518;48.842;8.926;2023-01-08T02:20:07;96469.22;;;7.41;77.57
1401;BME280;46518;48.842;8.926;2023-01-08T02:22:45;96460.88;;;7.44;77.10
1401;BME280;46518;48.842;8.926;2023-01-08T02:25:25;96470.38;;;7.67;76.53
1401;BME280;46518;48.842;8.926;2023-01-08T02:27:59;96459.69;;;7.51;77.21
1401;BME280;46518;48.842;8.926;2023-01-08T02:30:30;96463.81;;;7.47;77.39
1401;BME280;46518;48.842;8.926;2023-01-08T02:32:59;96454.41;;;7.46;77.23
1401;BME280;46518;48.842;8.926;2023-01-08T02:35:33;96433.56;;;7.18;77.82
1401;BME280;46518;48.842;8.926;2023-01-08T02:38:05;96447.50;;;7.23;78.22
1401;BME280;46518;48.842;8.926;2023-01-08T02:40:40;96430.72;;;7.19;77.37
1401;BME280;46518;48.842;8.926;2023-01-08T02:43:15;96438.06;;;7.39;76.83
1401;BME280;46518;48.842;8.926;2023-01-08T02:45:47;96441.59;;;7.50;76.65
1401;BME280;46518;48.842;8.926;2023-01-08T02:48:38;96419.56;;;7.46;76.41
1401;BME280;46518;48.842;8.926;2023-01-08T02:51:16;96437.53;;;7.59;75.54
1401;BME280;46518;48.842;8.926;2023-01-08T02:53:50;96406.06;;;7.54;75.02
1401;BME280;46518;48.842;8.926;2023-01-08T02:56:25;96404.72;;;7.51;74.68
1401;BME280;46518;48.842;8.926;2023-01-08T02:58:57;96412.94;;;7.60;75.11
1401;BME280;46518;48.842;8.926;2023-01-08T03:01:27;96406.84;;;7.54;75.38
1401;BME280;46518;48.842;8.926;2023-01-08T03:03:59;96396.44;;;7.60;75.03
1401;BME280;46518;48.842;8.926;2023-01-08T03:06:30;96417.38;;;7.82;74.83
1401;BME280;46518;48.842;8.926;2023-01-08T03:08:59;96412.44;;;7.63;74.87
1401;BME280;46518;48.842;8.926;2023-01-08T03:11:30;96384.00;;;7.50;75.25
1401;BME280;46518;48.842;8.926;2023-01-08T03:14:14;96384.75;;;7.67;75.14
1401;BME280;46518;48.842;8.926;2023-01-08T03:16:53;96375.72;;;7.36;75.57
1401;BME280;46518;48.842;8.926;2023-01-08T03:19:27;96398.06;;;7.66;75.94
1401;BME280;46518;48.842;8.926;2023-01-08T03:21:57;96380.59;;;7.49;76.02
1401;BME280;46518;48.842;8.926;2023-01-08T03:24:30;96395.59;;;7.54;75.69
1401;BME280;46518;48.842;8.926;2023-01-08T03:27:03;96386.50;;;7.40;76.37
1401;BME280;46518;48.842;8.926;2023-01-08T03:29:37;96377.31;;;7.37;76.06
1401;BME280;46518;48.842;8.926;2023-01-08T03:32:11;96364.88;;;7.27;75.88
1401;BME280;46518;48.842;8.926;2023-01-08T03:34:44;96367.56;;;7.32;75.86
1401;BME280;46518;48.842;8.926;2023-01-08T03:37:15;96360.88;;;7.42;75.81
1401;BME280;46518;48.842;8.926;2023-01-08T03:39:48;96380.84;;;7.48;76.15
1401;BME280;46518;48.842;8.926;2023-01-08T03:42:26;96380.09;;;7.30;76.53
1401;BME280;46518;48.842;8.926;2023-01-08T04:00:19;96388.53;;;7.54;77.35
1401;BME280;46518;48.842;8.926;2023-01-08T04:02:49;96378.03;;;7.54;76.93
1401;BME280;46518;48.842;8.926;2023-01-08T04:05:17;96377.00;;;7.55;76.92
1401;BME280;46518;48.842;8.926;2023-01-08T04:07:46;96379.50;;;7.45;77.77
1401;BME280;46518;48.842;8.926;2023-01-08T04:10:14;96374.50;;;7.44;77.93
1401;BME280;46518;48.842;8.926;2023-01-08T04:12:43;96382.03;;;7.40;77.51
1401;BME280;46518;48.842;8.926;2023-01-08T04:15:12;96363.91;;;7.33;77.00
1401;BME280;46518;48.842;8.926;2023-01-08T04:17:41;96354.25;;;7.34;77.45
1401;BME280;46518;48.842;8.926;2023-01-08T04:20:10;96365.13;;;7.48;76.93
1401;BME280;46518;48.842;8.926;2023-01-08T04:31:41;96368.97;;;7.40;77.20
1401;BME280;46518;48.842;8.926;2023-01-08T11:20:42;96242.72;;;9.10;87.60
1401;BME280;46518;48.842;8.926;2023-01-08T11:23:15;96227.19;;;9.03;88.27
1401;BME280;46518;48.842;8.926;2023-01-08T11:25:50;96237.19;;;9.06;88.17
1401;BME280;46518;48.842;8.926;2023-01-08T11:28:26;96230.13;;;9.12;88.28
1401;BME280;46518;48.842;8.926;2023-01-08T11:31:03;96233.00;;;9.10;88.35
1401;BME280;46518;48.842;8.926;2023-01-08T11:33:38;96233.53;;;9.12;87.35
1401;BME280;46518;48.842;8.926;2023-01-08T11:36:17;96225.94;;;9.21;89.24
1401;BME280;46518;48.842;8.926;2023-01-08T11:38:51;96213.34;;;9.23;87.58
1401;BME280;46518;48.842;8.926;2023-01-08T11:41:46;96202.84;;;9.18;87.29
1401;BME280;46518;48.842;8.926;2023-01-08T11:44:32;96203.69;;;9.28;86.56
1401;BME280;46518;48.842;8.926;2023-01-08T11:47:10;96196.28;;;9.20;85.91
1401;BME280;46518;48.842;8.926;2023-01-08T11:52:44;96192.88;;;9.15;85.59
1401;BME280;46518;48.842;8.926;2023-01-08T16:15:32;95957.16;;;8.81;84.18
1401;BME280;46518;48.842;8.926;2023-01-08T16:18:01;95969.78;;;8.94;83.99
1401;BME280;46518;48.842;8.926;2023-01-08T16:20:29;95945.88;;;8.91;83.95
1401;BME280;46518;48.842;8.926;2023-01-08T16:23:03;95932.25;;;9.09;82.64
1401;BME280;46518;48.842;8.926;2023-01-08T16:25:31;95922.50;;;9.15;82.07
1401;BME280;46518;48.842;8.926;2023-01-08T16:28:01;95934.31;;;9.12;82.23
1401;BME280;46518;48.842;8.926;2023-01-08T16:30:29;95934.06;;;9.24;82.57
1401;BME280;46518;48.842;8.926;2023-01-08T16:32:59;95906.53;;;9.11;82.30
1401;BME280;46518;48.842;8.926;2023-01-08T16:35:27;95929.31;;;9.11;82.99
1401;BME280;46518;48.842;8.926;2023-01-08T16:37:56;95914.91;;;9.08;82.46
1401;BME280;46518;48.842;8.926;2023-01-08T16:40:24;95903.66;;;8.92;82.81
1401;BME280;46518;48.842;8.926;2023-01-08T16:42:52;95901.56;;;8.89;82.97
1401;BME280;46518;48.842;8.926;2023-01-08T16:45:20;95903.91;;;8.85;83.25
1401;BME280;46518;48.842;8.926;2023-01-08T16:47:48;95915.19;;;8.91;83.50
1401;BME280;46518;48.842;8.926;2023-01-08T16:50:19;95906.53;;;8.85;83.31
1401;BME280;46518;48.842;8.926;2023-01-08T16:52:47;95909.44;;;8.74;84.24
1401;BME280;46518;48.842;8.926;2023-01-08T16:55:17;95917.81;;;8.76;84.27
1401;BME280;46518;48.842;8.926;2023-01-08T16:57:45;95905.22;;;8.88;83.81
1401;BME280;46518;48.842;8.926;2023-01-08T17:00:14;95909.41;;;8.99;83.34
1401;BME280;46518;48.842;8.926;2023-01-08T17:02:42;95898.66;;;8.91;83.67
1401;BME280;46518;48.842;8.926;2023-01-08T17:05:10;95901.78;;;9.03;82.86
1401;BME280;46518;48.842;8.926;2023-01-08T17:07:40;95899.97;;;9.09;82.24
1401;BME280;46518;48.842;8.926;2023-01-08T17:10:09;95896.28;;;9.10;82.31
1401;BME280;46518;48.842;8.926;2023-01-08T17:12:37;95889.75;;;8.97;82.48
1401;BME280;46518;48.842;8.926;2023-01-08T17:15:06;95872.69;;;8.94;82.93
1401;BME280;46518;48.842;8.926;2023-01-08T17:17:35;95866.13;;;8.97;83.33
1401;BME280;46518;48.842;8.926;2023-01-08T17:20:04;95859.03;;;8.97;82.80
1401;BME280;46518;48.842;8.926;2023-01-08T17:22:33;95852.97;;;9.12;82.25
1401;BME280;46518;48.842;8.926;2023-01-08T17:25:03;95852.22;;;8.91;82.30
1401;BME280;46518;48.842;8.926;2023-01-08T17:27:35;95849.59;;;8.86;83.54
1401;BME280;46518;48.842;8.926;2023-01-08T17:30:04;95839.66;;;8.57;84.97
1401;BME280;46518;48.842;8.926;2023-01-08T17:32:33;95834.41;;;8.62;85.40
1401;BME280;46518;48.842;8.926;2023-01-08T17:35:01;95828.38;;;8.36;86.78
1401;BME280;46518;48.842;8.926;2023-01-08T17:37:30;95828.09;;;8.28;87.58
1401;BME280;46518;48.842;8.926;2023-01-08T18:11:50;95800.31;;;8.62;85.15
1401;BME280;46518;48.842;8.926;2023-01-08T18:14:18;95799.28;;;8.74;84.50
1401;BME280;46518;48.842;8.926;2023-01-08T18:16:46;95799.75;;;8.81;84.20
1401;BME280;46518;48.842;8.926;2023-01-08T18:19:18;95790.63;;;8.63;84.45
1401;BME280;46518;48.842;8.926;2023-01-08T18:21:47;95796.66;;;8.58;84.42
1401;BME280;46518;48.842;8.926;2023-01-08T18:24:15;95794.03;;;8.53;85.24
1401;BME280;46518;48.842;8.926;2023-01-08T18:26:43;95770.97;;;8.55;84.90
1401;BME280;46518;48.842;8.926;2023-01-08T18:29:21;95792.69;;;8.81;84.05
1401;BME280;46518;48.842;8.926;2023-01-08T18:31:49;95781.63;;;8.95;83.56
1401;BME280;46518;48.842;8.926;2023-01-08T18:34:55;95776.34;;;9.05;82.76
1401;BME280;46518;48.842;8.926;2023-01-08T18:37:24;95756.13;;;9.11;82.17
1401;BME280;46518;48.842;8.926;2023-01-08T18:39:52;95777.03;;;9.26;81.71
1401;BME280;46518;48.842;8.926;2023-01-08T18:42:20;95762.91;;;9.22;80.50
1401;BME280;46518;48.842;8.926;2023-01-08T18:44:57;95784.63;;;9.33;80.43
1401;BME280;46518;48.842;8.926;2023-01-08T18:47:26;95767.09;;;9.23;80.49
1401;BME280;46518;48.842;8.926;2023-01-08T18:49:55;95766.66;;;9.55;80.24
1401;BME280;46518;48.842;8.926;2023-01-08T18:52:25;95767.00;;;9.43;79.73
1401;BME280;46518;48.842;8.926;2023-01-08T18:54:54;95768.97;;;9.67;78.70
1401;BME280;46518;48.842;8.926;2023-01-08T18:57:24;95763.25;;;9.55;78.64
1401;BME280;46518;48.842;8.926;2023-01-08T18:59:53;95763.78;;;9.57;79.31
1401;BME280;46518;48.842;8.926;2023-01-08T19:02:40;95766.03;;;9.79;78.62
1401;BME280;46518;48.842;8.926;2023-01-08T19:05:09;95754.41;;;9.85;78.32
1401;BME280;46518;48.842;8.926;2023-01-08T19:07:38;95753.41;;;9.76;77.79
1401;BME280;46518;48.842;8.926;2023-01-08T19:10:08;95751.09;;;9.69;78.29
1401;BME280;46518;48.842;8.926;2023-01-08T19:12:37;95758.13;;;9.34;79.40
1401;BME280;46518;48.842;8.926;2023-01-08T19:15:06;95749.38;;;8.89;81.99
1401;BME280;46518;48.842;8.926;2023-01-08T19:17:34;95736.50;;;8.93;82.45
1401;BME280;46518;48.842;8.926;2023-01-08T19:20:23;95733.09;;;8.97;81.78
1401;BME280;46518;48.842;8.926;2023-01-08T19:22:51;95718.72;;;8.79;82.35
1401;BME280;46518;48.842;8.926;2023-01-08T19:25:20;95718.38;;;9.01;81.84
1401;BME280;46518;48.842;8.926;2023-01-08T19:27:48;95705.88;;;8.78;81.87
1401;BME280;46518;48.842;8.926;2023-01-08T19:30:17;95704.53;;;8.85;81.64
1401;BME280;46518;48.842;8.926;2023-01-08T19:32:45;95713.38;;;9.05;81.28
1401;BME280;46518;48.842;8.926;2023-01-08T19:35:15;95703.75;;;8.80;82.16
1401;BME280;46518;48.842;8.926;2023-01-08T19:37:44;95698.75;;;8.83;82.34
1401;BME280;46518;48.842;8.926;2023-01-08T19:40:14;95699.78;;;8.93;81.94
1401;BME280;46518;48.842;8.926;2023-01-08T19:42:44;95697.22;;;8.77;81.91
1401;BME280;46518;48.842;8.926;2023-01-08T19:45:29;95687.53;;;8.73;81.76
1401;BME280;46518;48.842;8.926;2023-01-08T19:47:58;95696.16;;;8.78;82.85
1401;BME280;46518;48.842;8.926;2023-01-08T19:50:26;95677.38;;;8.51;84.42
1401;BME280;46518;48.842;8.926;2023-01-08T19:53:03;95683.63;;;8.60;84.81
1401;BME280;46518;48.842;8.926;2023-01-08T19:55:34;95684.72;;;8.59;85.86
1401;BME280;46518;48.842;8.926;2023-01-08T19:58:07;95668.97;;;8.38;87.39
1401;BME280;46518;48.842;8.926;2023-01-08T20:00:35;95661.94;;;8.24;88.34
1401;BME280;46518;48.842;8.926;2023-01-08T20:03:08;95650.69;;;8.18;88.91
1401;BME280;46518;48.842;8.926;2023-01-08T20:05:39;95641.25;;;8.22;88.52
1401;BME280;46518;48.842;8.926;2023-01-08T20:08:09;95637.06;;;8.16;89.34
1401;BME280;46518;48.842;8.926;2023-01-08T20:10:37;95651.25;;;8.05;90.17
1401;BME280;46518;48.842;8.926;2023-01-08T20:13:24;95671.91;;;8.32;89.61
1401;BME280;46518;48.842;8.926;2023-01-08T20:15:54;95639.94;;;8.25;90.42
1401;BME280;46518;48.842;8.926;2023-01-08T20:18:24;95648.34;;;8.16;90.53
